createdAt,value
2022-09-16T00:01:23.329Z,19.82
2022-09-16T00:03:56.542Z,19.69
2022-09-16T00:06:27.822Z,20.00
2022-09-16T00:08:58.505Z,19.99
2022-09-16T00:11:26.785Z,20.09
2022-09-16T00:13:56.653Z,20.06
2022-09-16T00:16:29.284Z,19.78
2022-09-16T00:19:03.155Z,19.54
2022-09-16T00:21:32.015Z,19.71
2022-09-16T00:24:00.484Z,19.87
2022-09-16T00:26:29.795Z,19.51
2022-09-16T00:28:59.478Z,20.03
2022-09-16T00:31:27.735Z,19.92
2022-09-16T00:33:55.985Z,20.29
2022-09-16T00:36:24.482Z,20.03
2022-09-16T00:38:54.777Z,19.86
2022-09-16T00:41:26.516Z,19.98
2022-09-16T00:43:59.698Z,20.15
2022-09-16T00:46:35.632Z,20.48
2022-09-16T00:49:11.547Z,19.65
2022-09-16T00:51:41.826Z,19.38
2022-09-16T00:54:11.116Z,19.97
2022-09-16T00:56:44.280Z,20.28
2022-09-16T00:59:20.063Z,20.38
2022-09-16T01:01:49.479Z,20.35
2022-09-16T01:04:22.986Z,20.08
2022-09-16T01:06:52.294Z,20.20
2022-09-16T01:09:24.256Z,20.22
2022-09-16T01:11:52.910Z,20.74
2022-09-16T01:14:42.083Z,20.51
2022-09-16T01:17:20.439Z,20.58
2022-09-16T01:20:24.674Z,20.29
2022-09-16T01:23:29.570Z,19.87
2022-09-16T01:26:30.711Z,19.49
2022-09-16T01:29:48.901Z,19.28
2022-09-16T01:32:27.280Z,18.88
2022-09-16T01:35:05.823Z,19.66
2022-09-16T01:37:48.314Z,19.81
2022-09-16T01:40:26.196Z,19.79
2022-09-16T01:43:04.645Z,20.12
2022-09-16T01:45:41.699Z,20.47
2022-09-16T01:48:23.311Z,20.28
2022-09-16T01:51:01.876Z,19.99
2022-09-16T01:53:36.206Z,20.57
2022-09-16T01:56:10.868Z,20.49
2022-09-16T01:58:47.340Z,20.34
2022-09-16T02:01:23.462Z,20.64
2022-09-16T02:04:01.286Z,20.79
2022-09-16T02:06:32.253Z,20.58
2022-09-16T02:09:05.997Z,20.79
2022-09-16T02:11:36.622Z,20.81
2022-09-16T02:14:11.182Z,20.14
2022-09-16T02:16:43.960Z,20.39
2022-09-16T02:19:18.502Z,20.71
2022-09-16T02:21:47.861Z,20.20
2022-09-16T02:24:21.132Z,19.64
2022-09-16T02:26:55.304Z,18.91
2022-09-16T02:29:28.000Z,19.28
2022-09-16T02:32:02.010Z,19.38
2022-09-16T02:34:38.701Z,19.91
2022-09-16T02:37:13.556Z,20.45
2022-09-16T02:39:46.535Z,20.52
2022-09-16T02:42:15.249Z,20.29
2022-09-16T02:44:44.369Z,20.32
2022-09-16T02:47:18.665Z,20.52
2022-09-16T02:49:56.517Z,20.42
2022-09-16T02:52:34.774Z,20.52
2022-09-16T02:55:11.586Z,20.25
2022-09-16T02:57:39.885Z,19.89
2022-09-16T03:00:10.544Z,19.90
2022-09-16T03:02:38.949Z,19.91
2022-09-16T03:05:09.608Z,19.75
2022-09-16T03:07:38.448Z,19.71
2022-09-16T03:10:07.894Z,20.39
2022-09-16T03:12:56.445Z,20.28
2022-09-16T03:15:46.821Z,20.40
2022-09-16T03:18:33.415Z,20.24
2022-09-16T03:21:10.998Z,20.40
2022-09-16T03:23:50.338Z,20.50
2022-09-16T03:26:33.933Z,20.30
2022-09-16T03:29:13.472Z,20.14
2022-09-16T03:31:52.370Z,20.31
2022-09-16T03:34:27.254Z,20.13
2022-09-16T03:37:04.218Z,20.33
2022-09-16T03:39:33.064Z,19.90
2022-09-16T03:42:03.176Z,19.73
2022-09-16T03:44:36.707Z,19.40
2022-09-16T03:47:06.102Z,19.85
2022-09-16T03:49:34.445Z,19.37
2022-09-16T03:52:05.461Z,19.96
2022-09-16T03:54:34.020Z,20.14
2022-09-16T03:57:02.269Z,19.85
2022-09-16T03:59:30.880Z,19.42
2022-09-16T04:01:59.186Z,18.85
2022-09-16T04:04:27.504Z,19.13
2022-09-16T04:06:55.602Z,19.28
2022-09-16T04:09:25.210Z,19.21
2022-09-16T04:11:53.357Z,19.75
2022-09-16T04:14:21.550Z,19.88
2022-09-16T04:16:50.107Z,19.69
2022-09-16T04:19:23.447Z,19.71
2022-09-16T04:21:51.622Z,19.38
2022-09-16T04:24:20.098Z,19.40
2022-09-16T04:26:49.789Z,19.86
2022-09-16T04:29:18.248Z,20.04
2022-09-16T04:31:46.427Z,20.00
2022-09-16T04:34:14.901Z,19.92
2022-09-16T04:36:43.089Z,19.86
2022-09-16T04:39:14.122Z,19.82
2022-09-16T04:41:42.364Z,19.71
2022-09-16T04:44:12.700Z,19.24
2022-09-16T04:46:40.886Z,19.21
2022-09-16T04:49:09.232Z,19.48
2022-09-16T04:51:37.481Z,19.47
2022-09-16T04:54:05.831Z,19.34
2022-09-16T04:56:36.809Z,18.37
2022-09-16T04:59:07.178Z,19.27
2022-09-16T05:01:39.869Z,19.03
2022-09-16T05:04:11.050Z,19.02
2022-09-16T05:06:41.693Z,18.76
2022-09-16T05:09:11.691Z,19.00
2022-09-16T05:11:42.215Z,18.68
2022-09-16T05:14:15.907Z,19.19
2022-09-16T05:16:49.133Z,19.16
2022-09-16T05:19:17.337Z,18.72
2022-09-16T05:21:50.960Z,19.13
2022-09-16T05:24:19.133Z,18.80
2022-09-16T05:26:47.531Z,19.69
2022-09-16T05:29:20.426Z,19.72
2022-09-16T05:31:50.680Z,19.79
2022-09-16T05:34:23.113Z,19.89
2022-09-16T05:36:53.969Z,19.75
2022-09-16T05:39:24.436Z,19.81
2022-09-16T05:41:58.025Z,19.68
2022-09-16T05:44:27.419Z,19.68
2022-09-16T05:46:57.570Z,19.36
2022-09-16T05:49:26.175Z,19.69
2022-09-16T05:51:55.117Z,19.42
2022-09-16T05:54:25.119Z,19.90
2022-09-16T05:56:53.943Z,19.83
2022-09-16T05:59:22.570Z,20.17
2022-09-16T06:01:51.233Z,19.99
2022-09-16T06:04:20.979Z,20.04
2022-09-16T06:06:49.921Z,19.73
2022-09-16T06:09:20.722Z,19.39
2022-09-16T06:11:51.750Z,19.45
2022-09-16T06:14:22.642Z,19.56
2022-09-16T06:16:51.186Z,19.09
2022-09-16T06:19:20.976Z,19.43
2022-09-16T06:21:49.423Z,20.14
2022-09-16T06:24:20.161Z,19.90
2022-09-16T06:26:49.631Z,19.41
2022-09-16T06:29:18.341Z,20.21
2022-09-16T06:31:46.641Z,19.98
2022-09-16T06:34:18.454Z,20.27
2022-09-16T06:36:48.821Z,20.41
2022-09-16T06:39:18.166Z,20.05
2022-09-16T06:41:47.173Z,20.41
2022-09-16T06:44:15.443Z,19.70
2022-09-16T06:46:44.132Z,20.27
2022-09-16T06:49:13.099Z,20.18
2022-09-16T06:51:41.654Z,20.44
2022-09-16T06:54:12.958Z,19.96
2022-09-16T06:56:41.457Z,19.89
2022-09-16T06:59:11.317Z,20.14
2022-09-16T07:01:39.545Z,20.33
2022-09-16T07:04:13.096Z,20.42
2022-09-16T07:09:32.381Z,20.27
2022-09-16T07:12:00.667Z,20.52
2022-09-16T07:14:32.460Z,21.06
2022-09-16T07:17:01.138Z,20.71
2022-09-16T07:19:30.121Z,21.59
2022-09-16T07:21:58.679Z,21.78
2022-09-16T07:24:27.038Z,21.38
2022-09-16T07:26:56.559Z,21.35
2022-09-16T07:29:24.858Z,21.19
2022-09-16T07:31:53.165Z,20.86
2022-09-16T07:34:21.373Z,21.14
2022-09-16T07:36:50.839Z,20.60
2022-09-16T07:39:21.074Z,21.25
2022-09-16T07:41:49.902Z,21.13
2022-09-16T07:44:21.381Z,20.97
2022-09-16T07:46:51.167Z,21.13
2022-09-16T07:49:20.198Z,21.77
2022-09-16T07:51:49.384Z,20.68
2022-09-16T07:54:19.779Z,19.79
2022-09-16T07:56:48.263Z,20.59
2022-09-16T07:59:20.577Z,20.49
2022-09-16T08:01:50.571Z,20.94
2022-09-16T08:04:20.256Z,20.23
2022-09-16T08:06:49.292Z,20.94
2022-09-16T08:12:10.625Z,20.71
2022-09-16T08:14:40.267Z,20.53
2022-09-16T08:17:08.509Z,20.57
2022-09-16T08:19:38.385Z,21.26
2022-09-16T08:22:06.852Z,21.59
2022-09-16T08:24:35.086Z,21.40
2022-09-16T08:27:03.301Z,21.27
2022-09-16T08:29:31.762Z,20.59
2022-09-16T08:32:01.317Z,21.11
2022-09-16T08:34:29.457Z,20.98
2022-09-16T08:36:57.639Z,21.17
2022-09-16T08:39:25.750Z,21.03
2022-09-16T08:42:25.590Z,21.28
2022-09-16T08:45:04.466Z,20.54
2022-09-16T08:47:50.489Z,20.79
2022-09-16T08:50:25.823Z,20.45
2022-09-16T08:52:56.750Z,19.67
2022-09-16T08:55:31.470Z,20.52
2022-09-16T08:58:04.750Z,19.81
2022-09-16T09:00:34.154Z,20.34
2022-09-16T09:03:17.233Z,19.69
2022-09-16T09:05:52.448Z,19.35
2022-09-16T09:08:38.122Z,19.19
2022-09-16T09:11:16.145Z,19.74
2022-09-16T09:14:09.544Z,19.26
2022-09-16T09:16:47.757Z,19.97
2022-09-16T09:19:35.854Z,19.85
2022-09-16T09:22:26.192Z,19.98
2022-09-16T09:25:23.695Z,19.24
2022-09-16T09:28:05.669Z,19.78
2022-09-16T09:30:38.654Z,19.62
2022-09-16T09:33:45.657Z,20.15
2022-09-16T09:36:43.954Z,20.09
2022-09-16T09:39:51.986Z,20.79
2022-09-16T09:42:25.699Z,20.35
2022-09-16T09:45:02.385Z,20.16
2022-09-16T09:47:38.066Z,20.11
2022-09-16T09:50:19.712Z,20.17
2022-09-16T09:52:57.235Z,19.74
2022-09-16T09:55:32.581Z,20.26
2022-09-16T09:58:06.336Z,19.18
2022-09-16T10:00:34.677Z,20.40
2022-09-16T10:03:07.815Z,19.14
2022-09-16T10:05:36.210Z,20.33
2022-09-16T10:08:17.906Z,20.34
2022-09-16T10:10:52.540Z,20.25
2022-09-16T10:13:22.340Z,20.42
2022-09-16T10:15:55.730Z,19.56
2022-09-16T10:18:31.113Z,19.63
2022-09-16T10:21:05.910Z,19.81
2022-09-16T10:23:36.726Z,20.02
2022-09-16T10:26:20.905Z,19.96
2022-09-16T10:29:01.893Z,20.46
2022-09-16T10:31:36.783Z,21.18
2022-09-16T10:34:19.414Z,21.29
2022-09-16T10:36:48.163Z,21.26
2022-09-16T10:39:26.994Z,21.61
2022-09-16T10:41:55.813Z,22.34
2022-09-16T10:44:28.323Z,21.80
2022-09-16T10:47:01.601Z,21.66
2022-09-16T10:49:40.165Z,21.93
2022-09-16T10:52:18.843Z,22.16
2022-09-16T10:54:49.678Z,22.35
2022-09-16T10:57:28.867Z,22.09
2022-09-16T11:00:06.615Z,23.37
2022-09-16T11:03:14.266Z,22.81
2022-09-16T11:05:56.601Z,23.16
2022-09-16T11:08:49.125Z,23.39
2022-09-16T11:11:34.332Z,23.13
2022-09-16T11:14:15.302Z,23.48
2022-09-16T11:17:17.874Z,23.45
2022-09-16T11:20:04.038Z,23.10
2022-09-16T11:22:43.375Z,23.35
2022-09-16T11:25:42.659Z,23.21
2022-09-16T11:28:44.947Z,22.59
2022-09-16T11:31:26.117Z,22.77
2022-09-16T11:34:06.087Z,23.18
2022-09-16T11:36:55.415Z,22.89
2022-09-16T11:39:59.877Z,23.33
2022-09-16T11:42:35.350Z,22.96
2022-09-16T11:45:23.678Z,22.60
2022-09-16T11:48:20.538Z,22.37
2022-09-16T11:50:59.161Z,22.93
2022-09-16T11:54:02.670Z,23.86
2022-09-16T11:56:39.844Z,23.27
2022-09-16T11:59:19.713Z,23.35
2022-09-16T12:01:55.166Z,22.58
2022-09-16T12:04:33.695Z,22.36
2022-09-16T12:07:19.017Z,22.63
2022-09-16T12:10:07.729Z,22.96
2022-09-16T12:12:52.371Z,22.81
2022-09-16T12:15:27.124Z,22.10
2022-09-16T12:18:00.015Z,22.72
2022-09-16T12:20:35.214Z,22.73
2022-09-16T12:23:13.618Z,22.37
2022-09-16T12:25:48.997Z,22.55
2022-09-16T12:28:21.437Z,23.66
2022-09-16T12:31:04.267Z,23.37
2022-09-16T12:33:41.431Z,23.42
2022-09-16T12:36:18.055Z,24.92
2022-09-16T12:38:48.834Z,24.02
2022-09-16T12:41:43.478Z,24.19
2022-09-16T12:44:36.608Z,24.42
2022-09-16T12:47:49.630Z,25.05
2022-09-16T12:51:09.582Z,25.37
2022-09-16T12:54:17.661Z,25.52
2022-09-16T12:57:18.215Z,25.26
2022-09-16T13:00:15.462Z,25.25
2022-09-16T13:02:49.875Z,25.84
2022-09-16T13:05:30.849Z,25.20
2022-09-16T13:08:06.032Z,25.47
2022-09-16T13:10:54.953Z,26.06
2022-09-16T13:13:35.215Z,25.29
2022-09-16T13:16:06.795Z,25.06
2022-09-16T13:18:45.022Z,25.61
2022-09-16T13:21:26.133Z,24.70
2022-09-16T13:24:04.103Z,25.92
2022-09-16T13:26:42.588Z,26.15
2022-09-16T13:29:43.718Z,26.38
2022-09-16T13:32:37.854Z,26.38
2022-09-16T13:35:22.650Z,26.13
2022-09-16T13:37:55.548Z,27.59
2022-09-16T13:40:29.392Z,27.88
2022-09-16T13:43:13.862Z,28.24
2022-09-16T13:45:44.500Z,27.75
2022-09-16T13:48:19.380Z,26.29
2022-09-16T13:50:54.151Z,26.35
2022-09-16T13:53:30.834Z,25.52
2022-09-16T13:56:09.439Z,25.49
2022-09-16T13:58:45.818Z,25.75
2022-09-16T14:01:28.236Z,25.55
2022-09-16T14:04:12.890Z,25.84
2022-09-16T14:07:20.634Z,26.07
2022-09-16T14:10:00.365Z,25.50
2022-09-16T14:12:40.487Z,25.09
2022-09-16T14:15:09.611Z,25.63
2022-09-16T14:17:42.332Z,25.53
2022-09-16T14:20:17.289Z,26.04
2022-09-16T14:22:46.090Z,26.35
2022-09-16T14:25:31.123Z,26.07
2022-09-16T14:28:10.724Z,26.07
2022-09-16T14:30:45.874Z,27.28
2022-09-16T14:33:23.870Z,25.70
2022-09-16T14:36:01.059Z,26.97
2022-09-16T14:38:46.106Z,27.04
2022-09-16T14:41:26.102Z,26.78
2022-09-16T14:43:57.311Z,26.39
2022-09-16T14:46:28.032Z,25.56
2022-09-16T14:48:56.416Z,26.32
2022-09-16T14:51:28.821Z,25.97
2022-09-16T14:54:15.246Z,26.67
2022-09-16T14:56:56.240Z,25.99
2022-09-16T14:59:28.902Z,26.38
2022-09-16T15:02:02.435Z,26.72
2022-09-16T15:04:34.161Z,26.83
2022-09-16T15:07:12.686Z,26.99
2022-09-16T15:09:48.966Z,27.94
2022-09-16T15:12:29.502Z,27.40
2022-09-16T15:14:58.502Z,27.69
2022-09-16T15:17:31.858Z,26.20
2022-09-16T15:20:01.409Z,25.56
2022-09-16T15:22:30.358Z,25.81
2022-09-16T15:25:00.575Z,26.04
2022-09-16T15:27:33.952Z,25.70
2022-09-16T15:30:05.900Z,25.96
2022-09-16T15:32:46.194Z,26.70
2022-09-16T15:35:23.441Z,26.21
2022-09-16T15:37:53.363Z,26.42
2022-09-16T15:40:36.461Z,26.06
2022-09-16T15:43:19.578Z,26.54
2022-09-16T15:46:00.430Z,25.46
2022-09-16T15:48:35.095Z,25.64
2022-09-16T15:51:09.473Z,26.48
2022-09-16T15:53:46.545Z,26.20
2022-09-16T15:56:29.128Z,26.51
2022-09-16T15:59:06.815Z,26.11
2022-09-16T16:01:52.424Z,25.49
2022-09-16T16:04:28.999Z,25.43
2022-09-16T16:06:59.861Z,24.70
2022-09-16T16:09:42.700Z,25.10
2022-09-16T16:12:16.631Z,24.36
2022-09-16T16:14:46.882Z,24.70
2022-09-16T16:17:18.924Z,24.32
2022-09-16T16:19:49.621Z,23.45
2022-09-16T16:22:19.517Z,24.22
2022-09-16T16:24:48.030Z,24.09
2022-09-16T16:27:16.224Z,23.46
2022-09-16T16:29:45.841Z,22.81
2022-09-16T16:32:17.312Z,22.98
2022-09-16T16:34:50.340Z,23.40
2022-09-16T16:37:44.926Z,22.62
2022-09-16T16:40:12.290Z,22.69
2022-09-16T16:42:43.223Z,22.25
2022-09-16T16:45:15.561Z,22.56
2022-09-16T16:47:44.774Z,22.52
2022-09-16T16:50:13.033Z,22.68
2022-09-16T16:52:41.793Z,22.90
2022-09-16T16:55:11.000Z,22.63
2022-09-16T16:57:39.467Z,22.72
2022-09-16T17:00:14.348Z,21.94
2022-09-16T17:02:47.526Z,21.24
2022-09-16T17:05:16.118Z,21.83
2022-09-16T17:07:44.703Z,20.91
2022-09-16T17:10:12.968Z,21.74
2022-09-16T17:12:41.340Z,21.14
2022-09-16T17:15:13.192Z,22.16
2022-09-16T17:17:42.997Z,21.49
2022-09-16T17:20:11.429Z,21.27
2022-09-16T17:22:40.569Z,20.74
2022-09-16T17:25:09.803Z,21.24
2022-09-16T17:27:38.169Z,21.31
2022-09-16T17:30:08.243Z,20.76
2022-09-16T17:32:36.882Z,21.13
2022-09-16T17:35:07.932Z,20.28
2022-09-16T17:37:38.726Z,20.36
2022-09-16T17:40:08.550Z,20.75
2022-09-16T17:42:53.136Z,20.52
2022-09-16T17:45:21.502Z,20.95
2022-09-16T17:47:49.945Z,20.52
2022-09-16T17:50:22.861Z,21.23
2022-09-16T17:52:51.556Z,20.89
2022-09-16T17:55:21.169Z,20.45
2022-09-16T17:57:55.714Z,20.42
2022-09-16T18:00:24.594Z,20.85
2022-09-16T18:02:52.992Z,20.90
2022-09-16T18:05:25.601Z,20.35
2022-09-16T18:07:57.695Z,20.44
2022-09-16T18:10:26.292Z,20.40
2022-09-16T18:12:54.956Z,21.01
2022-09-16T18:15:23.275Z,19.89
2022-09-16T18:17:51.777Z,20.43
2022-09-16T18:20:20.177Z,20.43
2022-09-16T18:22:50.049Z,20.59
2022-09-16T18:25:18.362Z,21.02
2022-09-16T18:27:46.728Z,20.73
2022-09-16T18:30:16.791Z,19.71
2022-09-16T18:32:45.191Z,19.78
2022-09-16T18:35:13.382Z,19.62
2022-09-16T18:37:41.765Z,19.94
2022-09-16T18:40:12.538Z,20.40
2022-09-16T18:42:40.925Z,19.99
2022-09-16T18:45:10.298Z,20.50
2022-09-16T18:47:38.488Z,20.75
2022-09-16T18:50:08.439Z,20.67
2022-09-16T18:52:36.730Z,20.38
2022-09-16T18:55:05.825Z,19.87
2022-09-16T18:57:35.629Z,20.12
2022-09-16T19:00:05.073Z,19.35
2022-09-16T19:02:33.829Z,19.90
2022-09-16T19:05:02.148Z,20.43
2022-09-16T19:07:30.454Z,20.49
2022-09-16T19:09:58.759Z,20.29
2022-09-16T19:12:27.296Z,20.15
2022-09-16T19:15:02.048Z,20.47
2022-09-16T19:17:34.360Z,20.37
2022-09-16T19:20:04.140Z,19.87
2022-09-16T19:22:32.436Z,20.24
2022-09-16T19:25:01.626Z,20.09
2022-09-16T19:27:30.297Z,20.48
2022-09-16T19:30:02.268Z,20.23
2022-09-16T19:32:30.797Z,19.79
2022-09-16T19:34:59.096Z,19.55
2022-09-16T19:37:27.350Z,19.85
2022-09-16T19:39:56.679Z,19.94
2022-09-16T19:42:24.998Z,19.84
2022-09-16T19:44:54.584Z,20.07
2022-09-16T19:47:24.504Z,19.47
2022-09-16T19:49:52.993Z,19.94
2022-09-16T19:52:21.133Z,20.26
2022-09-16T19:54:49.378Z,20.17
2022-09-16T19:57:18.899Z,20.16
2022-09-16T19:59:47.737Z,20.32
2022-09-16T20:02:16.716Z,19.87
2022-09-16T20:04:46.765Z,20.45
2022-09-16T20:07:17.388Z,20.64
2022-09-16T20:09:48.251Z,20.73
2022-09-16T20:12:16.518Z,20.29
2022-09-16T20:14:44.826Z,20.47
2022-09-16T20:17:13.103Z,20.36
2022-09-16T20:19:41.245Z,20.43
2022-09-16T20:22:10.835Z,20.53
2022-09-16T20:24:39.391Z,20.35
2022-09-16T20:27:07.638Z,20.51
2022-09-16T20:29:35.929Z,20.42
2022-09-16T20:32:04.517Z,20.75
2022-09-16T20:34:32.778Z,20.04
2022-09-16T20:37:01.058Z,20.06
2022-09-16T20:39:30.643Z,20.38
2022-09-16T20:41:58.825Z,20.15
2022-09-16T20:44:27.089Z,20.34
2022-09-16T20:46:55.760Z,19.99
2022-09-16T20:49:24.723Z,20.16
2022-09-16T20:51:53.179Z,20.47
2022-09-16T20:54:21.322Z,20.40
2022-09-16T20:56:51.171Z,20.58
2022-09-16T20:59:21.511Z,19.86
2022-09-16T21:01:50.586Z,20.60
2022-09-16T21:04:21.394Z,19.71
2022-09-16T21:06:49.896Z,19.65
2022-09-16T21:09:19.515Z,20.61
2022-09-16T21:11:49.534Z,20.23
2022-09-16T21:14:21.450Z,20.52
2022-09-16T21:16:50.036Z,20.74
2022-09-16T21:19:18.250Z,20.24
2022-09-16T21:21:47.743Z,20.01
2022-09-16T21:24:16.796Z,20.60
2022-09-16T21:26:46.370Z,20.69
2022-09-16T21:29:17.560Z,20.11
2022-09-16T21:31:47.264Z,20.02
2022-09-16T21:34:17.663Z,19.71
2022-09-16T21:36:46.591Z,20.52
2022-09-16T21:39:16.072Z,20.05
2022-09-16T21:41:45.483Z,20.44
2022-09-16T21:44:15.396Z,19.51
2022-09-16T21:46:47.201Z,20.18
2022-09-16T21:49:23.991Z,19.73
2022-09-16T21:51:54.008Z,19.87
2022-09-16T21:54:23.003Z,20.53
2022-09-16T21:56:52.812Z,19.91
2022-09-16T21:59:22.457Z,19.79
2022-09-16T22:01:53.022Z,20.25
2022-09-16T22:04:24.230Z,19.47
2022-09-16T22:06:55.469Z,20.19
2022-09-16T22:09:23.807Z,19.54
2022-09-16T22:11:52.094Z,20.05
2022-09-16T22:14:20.494Z,19.94
2022-09-16T22:16:48.765Z,20.22
2022-09-16T22:19:19.792Z,19.46
2022-09-16T22:21:50.335Z,19.87
2022-09-16T22:24:21.339Z,20.12
2022-09-16T22:26:51.932Z,19.83
2022-09-16T22:29:20.607Z,19.47
2022-09-16T22:31:49.516Z,19.62
2022-09-16T22:34:19.243Z,19.68
2022-09-16T22:36:47.494Z,19.81
2022-09-16T22:39:18.232Z,20.67
2022-09-16T22:41:46.709Z,19.86
2022-09-16T22:44:15.877Z,20.28
2022-09-16T22:46:47.037Z,20.24
2022-09-16T22:49:16.417Z,20.33
2022-09-16T22:51:46.220Z,19.92
2022-09-16T22:54:15.801Z,19.73
2022-09-16T22:56:44.965Z,20.39
2022-09-16T22:59:19.121Z,20.28
2022-09-16T23:01:48.032Z,20.31
2022-09-16T23:04:17.055Z,19.96
2022-09-16T23:06:46.725Z,20.02
2022-09-16T23:09:15.569Z,20.35
2022-09-16T23:11:43.973Z,20.16
2022-09-16T23:14:15.439Z,20.42
2022-09-16T23:16:43.707Z,20.17
2022-09-16T23:19:13.006Z,20.25
2022-09-16T23:21:42.102Z,20.02
2022-09-16T23:24:17.657Z,20.41
2022-09-16T23:26:46.884Z,20.07
2022-09-16T23:29:18.184Z,19.45
2022-09-16T23:31:47.179Z,19.82
2022-09-16T23:34:19.350Z,20.01
2022-09-16T23:36:48.098Z,19.90
2022-09-16T23:39:18.439Z,19.18
2022-09-16T23:41:47.129Z,19.53
2022-09-16T23:44:16.921Z,19.13
2022-09-16T23:46:45.893Z,19.34
2022-09-16T23:49:16.836Z,19.66
2022-09-16T23:51:45.119Z,19.69
2022-09-16T23:54:13.859Z,19.24
2022-09-16T23:56:44.374Z,19.75
2022-09-16T23:59:12.789Z,18.60
